sensor_id;sensor_type;location;lat;lon;timestamp;P1;durP1;ratioP1;P2;durP2;ratioP2
6513;SDS011;3290;47.716;9.070;2022-09-17T00:00:38;1.53;;;1.23;;
6513;SDS011;3290;47.716;9.070;2022-09-17T00:03:04;1.10;;;1.00;;
6513;SDS011;3290;47.716;9.070;2022-09-17T00:05:30;1.77;;;1.10;;
6513;SDS011;3290;47.716;9.070;2022-09-17T00:07:55;1.17;;;1.07;;
6513;SDS011;3290;47.716;9.070;2022-09-17T00:10:21;2.60;;;1.27;;
6513;SDS011;3290;47.716;9.070;2022-09-17T00:12:47;1.83;;;1.27;;
6513;SDS011;3290;47.716;9.070;2022-09-17T00:15:13;5.03;;;1.23;;
6513;SDS011;3290;47.716;9.070;2022-09-17T00:17:39;2.20;;;1.20;;
6513;SDS011;3290;47.716;9.070;2022-09-17T00:20:04;2.97;;;1.30;;
6513;SDS011;3290;47.716;9.070;2022-09-17T00:22:34;4.40;;;1.50;;
6513;SDS011;3290;47.716;9.070;2022-09-17T00:24:59;2.67;;;1.30;;
6513;SDS011;3290;47.716;9.070;2022-09-17T00:27:25;3.80;;;1.57;;
6513;SDS011;3290;47.716;9.070;2022-09-17T00:29:50;4.90;;;1.60;;
6513;SDS011;3290;47.716;9.070;2022-09-17T00:32:16;1.40;;;1.30;;
6513;SDS011;3290;47.716;9.070;2022-09-17T00:34:41;2.67;;;1.30;;
6513;SDS011;3290;47.716;9.070;2022-09-17T00:37:07;4.30;;;1.27;;
6513;SDS011;3290;47.716;9.070;2022-09-17T00:39:32;1.50;;;1.40;;
6513;SDS011;3290;47.716;9.070;2022-09-17T00:41:58;3.43;;;1.40;;
6513;SDS011;3290;47.716;9.070;2022-09-17T00:47:14;6.33;;;1.20;;
6513;SDS011;3290;47.716;9.070;2022-09-17T00:49:40;6.00;;;1.80;;
6513;SDS011;3290;47.716;9.070;2022-09-17T00:52:08;2.00;;;1.20;;
6513;SDS011;3290;47.716;9.070;2022-09-17T00:54:39;2.10;;;1.23;;
6513;SDS011;3290;47.716;9.070;2022-09-17T00:57:07;8.30;;;2.00;;
6513;SDS011;3290;47.716;9.070;2022-09-17T00:59:32;1.30;;;1.20;;
6513;SDS011;3290;47.716;9.070;2022-09-17T01:01:59;2.80;;;1.40;;
6513;SDS011;3290;47.716;9.070;2022-09-17T01:04:25;2.40;;;1.27;;
6513;SDS011;3290;47.716;9.070;2022-09-17T01:06:58;3.97;;;1.10;;
6513;SDS011;3290;47.716;9.070;2022-09-17T01:18:07;6.30;;;1.67;;
6513;SDS011;3290;47.716;9.070;2022-09-17T01:31:58;1.10;;;1.00;;
6513;SDS011;3290;47.716;9.070;2022-09-17T01:42:46;1.97;;;1.20;;
6513;SDS011;3290;47.716;9.070;2022-09-17T01:45:21;4.10;;;1.53;;
6513;SDS011;3290;47.716;9.070;2022-09-17T01:47:55;3.00;;;1.07;;
6513;SDS011;3290;47.716;9.070;2022-09-17T01:50:25;1.30;;;1.03;;
6513;SDS011;3290;47.716;9.070;2022-09-17T01:53:02;1.67;;;0.97;;
6513;SDS011;3290;47.716;9.070;2022-09-17T01:55:30;1.53;;;1.13;;
6513;SDS011;3290;47.716;9.070;2022-09-17T01:58:03;5.47;;;1.07;;
6513;SDS011;3290;47.716;9.070;2022-09-17T02:00:35;1.53;;;1.00;;
6513;SDS011;3290;47.716;9.070;2022-09-17T02:05:54;1.80;;;1.20;;
6513;SDS011;3290;47.716;9.070;2022-09-17T02:08:29;1.00;;;0.90;;
6513;SDS011;3290;47.716;9.070;2022-09-17T02:11:06;1.20;;;1.00;;
6513;SDS011;3290;47.716;9.070;2022-09-17T02:13:39;7.40;;;1.13;;
6513;SDS011;3290;47.716;9.070;2022-09-17T02:16:09;1.97;;;1.07;;
6513;SDS011;3290;47.716;9.070;2022-09-17T02:18:53;2.13;;;1.00;;
6513;SDS011;3290;47.716;9.070;2022-09-17T02:21:38;4.20;;;1.10;;
6513;SDS011;3290;47.716;9.070;2022-09-17T02:24:15;1.33;;;0.90;;
6513;SDS011;3290;47.716;9.070;2022-09-17T02:26:47;2.47;;;0.80;;
6513;SDS011;3290;47.716;9.070;2022-09-17T02:29:39;1.77;;;1.40;;
6513;SDS011;3290;47.716;9.070;2022-09-17T02:32:07;3.17;;;1.20;;
6513;SDS011;3290;47.716;9.070;2022-09-17T02:34:33;1.90;;;1.07;;
6513;SDS011;3290;47.716;9.070;2022-09-17T02:37:00;3.10;;;1.10;;
6513;SDS011;3290;47.716;9.070;2022-09-17T02:39:26;5.80;;;1.10;;
6513;SDS011;3290;47.716;9.070;2022-09-17T02:41:58;2.60;;;1.13;;
6513;SDS011;3290;47.716;9.070;2022-09-17T02:50:23;1.00;;;0.90;;
6513;SDS011;3290;47.716;9.070;2022-09-17T02:56:37;3.40;;;1.03;;
6513;SDS011;3290;47.716;9.070;2022-09-17T02:59:05;4.17;;;0.90;;
6513;SDS011;3290;47.716;9.070;2022-09-17T03:01:43;1.60;;;1.00;;
6513;SDS011;3290;47.716;9.070;2022-09-17T03:04:20;2.87;;;1.00;;
6513;SDS011;3290;47.716;9.070;2022-09-17T03:06:50;1.10;;;1.00;;
6513;SDS011;3290;47.716;9.070;2022-09-17T03:09:16;0.80;;;0.80;;
6513;SDS011;3290;47.716;9.070;2022-09-17T03:11:42;1.53;;;0.93;;
6513;SDS011;3290;47.716;9.070;2022-09-17T03:14:07;2.00;;;0.93;;
6513;SDS011;3290;47.716;9.070;2022-09-17T03:16:33;2.23;;;1.30;;
6513;SDS011;3290;47.716;9.070;2022-09-17T03:18:58;1.50;;;0.90;;
6513;SDS011;3290;47.716;9.070;2022-09-17T03:21:23;2.00;;;1.00;;
6513;SDS011;3290;47.716;9.070;2022-09-17T03:23:49;5.60;;;1.30;;
6513;SDS011;3290;47.716;9.070;2022-09-17T03:26:14;4.43;;;0.93;;
6513;SDS011;3290;47.716;9.070;2022-09-17T03:28:40;3.37;;;1.30;;
6513;SDS011;3290;47.716;9.070;2022-09-17T03:31:05;4.30;;;0.90;;
6513;SDS011;3290;47.716;9.070;2022-09-17T03:33:31;1.57;;;1.20;;
6513;SDS011;3290;47.716;9.070;2022-09-17T03:35:57;1.20;;;1.10;;
6513;SDS011;3290;47.716;9.070;2022-09-17T03:38:22;3.00;;;1.30;;
6513;SDS011;3290;47.716;9.070;2022-09-17T03:41:00;2.93;;;1.37;;
6513;SDS011;3290;47.716;9.070;2022-09-17T03:43:28;5.43;;;1.10;;
6513;SDS011;3290;47.716;9.070;2022-09-17T03:45:53;3.57;;;1.40;;
6513;SDS011;3290;47.716;9.070;2022-09-17T03:48:19;1.40;;;0.90;;
6513;SDS011;3290;47.716;9.070;2022-09-17T03:50:45;2.77;;;1.23;;
6513;SDS011;3290;47.716;9.070;2022-09-17T03:53:10;2.30;;;1.33;;
6513;SDS011;3290;47.716;9.070;2022-09-17T03:55:39;4.90;;;1.20;;
6513;SDS011;3290;47.716;9.070;2022-09-17T03:58:05;1.00;;;0.90;;
6513;SDS011;3290;47.716;9.070;2022-09-17T04:00:31;6.10;;;1.00;;
6513;SDS011;3290;47.716;9.070;2022-09-17T04:02:56;2.27;;;1.03;;
6513;SDS011;3290;47.716;9.070;2022-09-17T04:05:22;2.90;;;1.20;;
6513;SDS011;3290;47.716;9.070;2022-09-17T04:07:47;1.10;;;0.90;;
6513;SDS011;3290;47.716;9.070;2022-09-17T04:10:13;2.53;;;1.10;;
6513;SDS011;3290;47.716;9.070;2022-09-17T04:12:38;4.60;;;1.10;;
6513;SDS011;3290;47.716;9.070;2022-09-17T04:15:04;7.50;;;1.27;;
6513;SDS011;3290;47.716;9.070;2022-09-17T04:17:30;7.30;;;1.07;;
6513;SDS011;3290;47.716;9.070;2022-09-17T04:19:55;2.43;;;1.40;;
6513;SDS011;3290;47.716;9.070;2022-09-17T04:22:21;1.73;;;0.80;;
6513;SDS011;3290;47.716;9.070;2022-09-17T04:24:46;1.13;;;0.90;;
6513;SDS011;3290;47.716;9.070;2022-09-17T04:27:12;1.77;;;1.27;;
6513;SDS011;3290;47.716;9.070;2022-09-17T04:29:37;3.23;;;1.40;;
6513;SDS011;3290;47.716;9.070;2022-09-17T04:32:02;2.83;;;0.93;;
6513;SDS011;3290;47.716;9.070;2022-09-17T04:34:28;3.80;;;1.13;;
6513;SDS011;3290;47.716;9.070;2022-09-17T04:36:53;3.03;;;1.27;;
6513;SDS011;3290;47.716;9.070;2022-09-17T04:39:19;1.00;;;0.90;;
6513;SDS011;3290;47.716;9.070;2022-09-17T04:41:44;2.30;;;0.97;;
6513;SDS011;3290;47.716;9.070;2022-09-17T04:44:09;2.20;;;1.20;;
6513;SDS011;3290;47.716;9.070;2022-09-17T04:46:35;1.50;;;1.00;;
6513;SDS011;3290;47.716;9.070;2022-09-17T04:49:00;2.23;;;1.30;;
6513;SDS011;3290;47.716;9.070;2022-09-17T04:51:26;1.50;;;0.90;;
6513;SDS011;3290;47.716;9.070;2022-09-17T04:53:51;1.23;;;0.97;;
6513;SDS011;3290;47.716;9.070;2022-09-17T04:56:16;1.50;;;1.13;;
6513;SDS011;3290;47.716;9.070;2022-09-17T04:58:42;1.73;;;0.90;;
6513;SDS011;3290;47.716;9.070;2022-09-17T05:01:07;2.67;;;1.10;;
6513;SDS011;3290;47.716;9.070;2022-09-17T05:03:32;1.87;;;1.20;;
6513;SDS011;3290;47.716;9.070;2022-09-17T05:05:58;1.57;;;1.00;;
6513;SDS011;3290;47.716;9.070;2022-09-17T05:08:23;2.60;;;0.90;;
6513;SDS011;3290;47.716;9.070;2022-09-17T05:10:49;1.67;;;1.10;;
6513;SDS011;3290;47.716;9.070;2022-09-17T05:13:15;1.10;;;1.00;;
6513;SDS011;3290;47.716;9.070;2022-09-17T05:15:41;1.10;;;1.00;;
6513;SDS011;3290;47.716;9.070;2022-09-17T05:18:07;1.00;;;0.90;;
6513;SDS011;3290;47.716;9.070;2022-09-17T05:20:32;1.83;;;0.90;;
6513;SDS011;3290;47.716;9.070;2022-09-17T05:22:58;4.50;;;1.17;;
6513;SDS011;3290;47.716;9.070;2022-09-17T05:25:23;1.53;;;0.93;;
6513;SDS011;3290;47.716;9.070;2022-09-17T05:27:49;3.13;;;1.00;;
6513;SDS011;3290;47.716;9.070;2022-09-17T05:30:16;1.63;;;1.20;;
6513;SDS011;3290;47.716;9.070;2022-09-17T05:32:41;2.27;;;1.10;;
6513;SDS011;3290;47.716;9.070;2022-09-17T05:35:07;3.00;;;1.00;;
6513;SDS011;3290;47.716;9.070;2022-09-17T05:37:34;2.87;;;1.07;;
6513;SDS011;3290;47.716;9.070;2022-09-17T05:40:00;3.20;;;1.03;;
6513;SDS011;3290;47.716;9.070;2022-09-17T05:42:25;2.57;;;1.00;;
6513;SDS011;3290;47.716;9.070;2022-09-17T05:44:51;1.43;;;1.10;;
6513;SDS011;3290;47.716;9.070;2022-09-17T05:47:16;1.87;;;0.90;;
6513;SDS011;3290;47.716;9.070;2022-09-17T05:49:41;2.90;;;1.00;;
6513;SDS011;3290;47.716;9.070;2022-09-17T05:52:07;1.57;;;1.07;;
6513;SDS011;3290;47.716;9.070;2022-09-17T05:54:32;1.53;;;1.17;;
6513;SDS011;3290;47.716;9.070;2022-09-17T05:56:58;3.93;;;1.17;;
6513;SDS011;3290;47.716;9.070;2022-09-17T05:59:23;9.90;;;1.23;;
6513;SDS011;3290;47.716;9.070;2022-09-17T06:01:48;1.63;;;1.17;;
6513;SDS011;3290;47.716;9.070;2022-09-17T06:04:14;4.20;;;1.40;;
6513;SDS011;3290;47.716;9.070;2022-09-17T06:06:41;1.00;;;0.90;;
6513;SDS011;3290;47.716;9.070;2022-09-17T06:09:07;3.03;;;1.13;;
6513;SDS011;3290;47.716;9.070;2022-09-17T06:11:34;4.80;;;1.00;;
6513;SDS011;3290;47.716;9.070;2022-09-17T06:14:00;0.80;;;0.80;;
6513;SDS011;3290;47.716;9.070;2022-09-17T06:16:25;2.10;;;1.00;;
6513;SDS011;3290;47.716;9.070;2022-09-17T06:18:51;1.57;;;0.90;;
6513;SDS011;3290;47.716;9.070;2022-09-17T06:21:17;0.80;;;0.80;;
6513;SDS011;3290;47.716;9.070;2022-09-17T06:23:43;4.20;;;1.57;;
6513;SDS011;3290;47.716;9.070;2022-09-17T06:26:09;2.93;;;0.90;;
6513;SDS011;3290;47.716;9.070;2022-09-17T06:28:34;1.10;;;0.90;;
6513;SDS011;3290;47.716;9.070;2022-09-17T06:31:01;0.90;;;0.70;;
6513;SDS011;3290;47.716;9.070;2022-09-17T06:33:28;4.73;;;1.13;;
6513;SDS011;3290;47.716;9.070;2022-09-17T06:35:55;2.23;;;0.90;;
6513;SDS011;3290;47.716;9.070;2022-09-17T06:38:21;0.80;;;0.80;;
6513;SDS011;3290;47.716;9.070;2022-09-17T06:40:50;3.73;;;1.07;;
6513;SDS011;3290;47.716;9.070;2022-09-17T06:43:16;3.37;;;1.00;;
6513;SDS011;3290;47.716;9.070;2022-09-17T06:45:43;2.50;;;1.87;;
6513;SDS011;3290;47.716;9.070;2022-09-17T06:48:08;2.37;;;1.00;;
6513;SDS011;3290;47.716;9.070;2022-09-17T06:50:34;2.23;;;1.20;;
6513;SDS011;3290;47.716;9.070;2022-09-17T06:52:59;5.80;;;2.80;;
6513;SDS011;3290;47.716;9.070;2022-09-17T06:55:25;4.00;;;2.37;;
6513;SDS011;3290;47.716;9.070;2022-09-17T06:57:50;25.47;;;10.20;;
6513;SDS011;3290;47.716;9.070;2022-09-17T07:00:16;38.67;;;13.53;;
6513;SDS011;3290;47.716;9.070;2022-09-17T07:02:41;11.43;;;5.33;;
6513;SDS011;3290;47.716;9.070;2022-09-17T07:05:07;9.87;;;4.03;;
6513;SDS011;3290;47.716;9.070;2022-09-17T07:07:33;8.10;;;5.00;;
6513;SDS011;3290;47.716;9.070;2022-09-17T07:09:59;5.00;;;2.70;;
6513;SDS011;3290;47.716;9.070;2022-09-17T07:12:25;1.60;;;1.50;;
6513;SDS011;3290;47.716;9.070;2022-09-17T07:14:50;3.43;;;2.03;;
6513;SDS011;3290;47.716;9.070;2022-09-17T07:17:16;2.20;;;1.60;;
6513;SDS011;3290;47.716;9.070;2022-09-17T07:19:42;2.00;;;1.13;;
6513;SDS011;3290;47.716;9.070;2022-09-17T07:22:07;1.00;;;0.97;;
6513;SDS011;3290;47.716;9.070;2022-09-17T07:24:33;1.40;;;0.93;;
6513;SDS011;3290;47.716;9.070;2022-09-17T07:26:59;1.47;;;1.00;;
6513;SDS011;3290;47.716;9.070;2022-09-17T07:29:25;2.50;;;1.07;;
6513;SDS011;3290;47.716;9.070;2022-09-17T07:31:54;18.40;;;1.30;;
6513;SDS011;3290;47.716;9.070;2022-09-17T07:34:19;1.27;;;0.80;;
6513;SDS011;3290;47.716;9.070;2022-09-17T07:36:44;8.93;;;1.20;;
6513;SDS011;3290;47.716;9.070;2022-09-17T07:39:10;2.10;;;0.93;;
6513;SDS011;3290;47.716;9.070;2022-09-17T07:41:37;1.00;;;0.90;;
6513;SDS011;3290;47.716;9.070;2022-09-17T07:44:03;2.43;;;0.93;;
6513;SDS011;3290;47.716;9.070;2022-09-17T07:46:28;2.80;;;1.10;;
6513;SDS011;3290;47.716;9.070;2022-09-17T07:48:54;1.30;;;1.20;;
6513;SDS011;3290;47.716;9.070;2022-09-17T07:51:20;1.33;;;1.17;;
6513;SDS011;3290;47.716;9.070;2022-09-17T07:53:51;1.87;;;1.20;;
6513;SDS011;3290;47.716;9.070;2022-09-17T07:56:21;1.10;;;0.93;;
6513;SDS011;3290;47.716;9.070;2022-09-17T07:58:48;4.20;;;1.10;;
6513;SDS011;3290;47.716;9.070;2022-09-17T08:01:14;2.73;;;1.73;;
6513;SDS011;3290;47.716;9.070;2022-09-17T08:03:41;4.60;;;1.00;;
6513;SDS011;3290;47.716;9.070;2022-09-17T08:06:08;1.63;;;0.90;;
6513;SDS011;3290;47.716;9.070;2022-09-17T08:08:36;4.30;;;1.37;;
6513;SDS011;3290;47.716;9.070;2022-09-17T08:11:04;9.03;;;3.00;;
6513;SDS011;3290;47.716;9.070;2022-09-17T08:13:35;12.80;;;5.73;;
6513;SDS011;3290;47.716;9.070;2022-09-17T08:16:02;17.97;;;7.20;;
6513;SDS011;3290;47.716;9.070;2022-09-17T08:18:29;5.23;;;2.63;;
6513;SDS011;3290;47.716;9.070;2022-09-17T08:20:55;16.40;;;5.90;;
6513;SDS011;3290;47.716;9.070;2022-09-17T08:23:25;19.97;;;8.03;;
6513;SDS011;3290;47.716;9.070;2022-09-17T08:25:55;6.10;;;3.40;;
6513;SDS011;3290;47.716;9.070;2022-09-17T08:28:22;8.67;;;4.03;;
6513;SDS011;3290;47.716;9.070;2022-09-17T08:30:49;12.67;;;5.60;;
6513;SDS011;3290;47.716;9.070;2022-09-17T08:33:15;3.73;;;1.80;;
6513;SDS011;3290;47.716;9.070;2022-09-17T08:35:41;15.33;;;6.57;;
6513;SDS011;3290;47.716;9.070;2022-09-17T08:38:07;8.10;;;4.43;;
6513;SDS011;3290;47.716;9.070;2022-09-17T08:40:34;3.07;;;1.00;;
6513;SDS011;3290;47.716;9.070;2022-09-17T08:43:07;2.53;;;1.37;;
6513;SDS011;3290;47.716;9.070;2022-09-17T08:45:40;6.63;;;1.20;;
6513;SDS011;3290;47.716;9.070;2022-09-17T08:48:07;2.50;;;1.33;;
6513;SDS011;3290;47.716;9.070;2022-09-17T08:50:38;2.30;;;1.13;;
6513;SDS011;3290;47.716;9.070;2022-09-17T08:56:12;1.50;;;1.07;;
6513;SDS011;3290;47.716;9.070;2022-09-17T08:58:50;3.47;;;0.90;;
6513;SDS011;3290;47.716;9.070;2022-09-17T09:01:23;1.37;;;0.90;;
6513;SDS011;3290;47.716;9.070;2022-09-17T09:07:05;5.20;;;1.07;;
6513;SDS011;3290;47.716;9.070;2022-09-17T09:09:39;2.40;;;1.00;;
6513;SDS011;3290;47.716;9.070;2022-09-17T09:12:12;3.67;;;1.10;;
6513;SDS011;3290;47.716;9.070;2022-09-17T09:14:50;2.20;;;1.03;;
6513;SDS011;3290;47.716;9.070;2022-09-17T09:17:21;1.23;;;0.97;;
6513;SDS011;3290;47.716;9.070;2022-09-17T09:19:51;3.80;;;1.10;;
6513;SDS011;3290;47.716;9.070;2022-09-17T09:25:02;1.47;;;1.10;;
6513;SDS011;3290;47.716;9.070;2022-09-17T09:27:36;5.20;;;1.13;;
6513;SDS011;3290;47.716;9.070;2022-09-17T09:35:38;3.47;;;1.10;;
6513;SDS011;3290;47.716;9.070;2022-09-17T09:57:48;3.90;;;1.37;;
6513;SDS011;3290;47.716;9.070;2022-09-17T10:00:49;3.77;;;1.20;;
6513;SDS011;3290;47.716;9.070;2022-09-17T10:03:26;1.40;;;0.83;;
6513;SDS011;3290;47.716;9.070;2022-09-17T10:06:05;6.13;;;1.10;;
6513;SDS011;3290;47.716;9.070;2022-09-17T10:08:34;3.50;;;1.03;;
6513;SDS011;3290;47.716;9.070;2022-09-17T10:13:32;2.40;;;1.00;;
6513;SDS011;3290;47.716;9.070;2022-09-17T10:18:48;1.77;;;1.10;;
6513;SDS011;3290;47.716;9.070;2022-09-17T10:21:35;4.00;;;1.23;;
6513;SDS011;3290;47.716;9.070;2022-09-17T10:26:48;2.47;;;0.93;;
6513;SDS011;3290;47.716;9.070;2022-09-17T10:29:15;1.30;;;1.20;;
6513;SDS011;3290;47.716;9.070;2022-09-17T10:31:53;1.07;;;0.90;;
6513;SDS011;3290;47.716;9.070;2022-09-17T10:34:22;1.37;;;1.27;;
6513;SDS011;3290;47.716;9.070;2022-09-17T10:36:49;2.13;;;0.87;;
6513;SDS011;3290;47.716;9.070;2022-09-17T10:39:32;1.30;;;0.90;;
6513;SDS011;3290;47.716;9.070;2022-09-17T10:42:12;2.83;;;0.90;;
6513;SDS011;3290;47.716;9.070;2022-09-17T10:44:49;3.87;;;1.20;;
6513;SDS011;3290;47.716;9.070;2022-09-17T10:47:29;3.23;;;1.00;;
6513;SDS011;3290;47.716;9.070;2022-09-17T10:52:40;1.67;;;0.90;;
6513;SDS011;3290;47.716;9.070;2022-09-17T11:00:43;2.57;;;1.10;;
6513;SDS011;3290;47.716;9.070;2022-09-17T11:08:51;1.50;;;0.93;;
6513;SDS011;3290;47.716;9.070;2022-09-17T11:17:16;3.70;;;1.30;;
6513;SDS011;3290;47.716;9.070;2022-09-17T11:25:34;1.10;;;1.00;;
6513;SDS011;3290;47.716;9.070;2022-09-17T11:31:44;3.30;;;0.90;;
6513;SDS011;3290;47.716;9.070;2022-09-17T11:35:55;4.10;;;1.97;;
6513;SDS011;3290;47.716;9.070;2022-09-17T11:38:35;1.23;;;0.80;;
6513;SDS011;3290;47.716;9.070;2022-09-17T11:43:37;1.67;;;0.90;;
6513;SDS011;3290;47.716;9.070;2022-09-17T11:46:20;5.17;;;1.00;;
6513;SDS011;3290;47.716;9.070;2022-09-17T11:48:54;2.33;;;1.30;;
6513;SDS011;3290;47.716;9.070;2022-09-17T11:51:30;1.73;;;1.00;;
6513;SDS011;3290;47.716;9.070;2022-09-17T11:54:13;1.60;;;1.47;;
6513;SDS011;3290;47.716;9.070;2022-09-17T11:56:46;4.43;;;2.20;;
6513;SDS011;3290;47.716;9.070;2022-09-17T12:01:57;2.63;;;1.20;;
6513;SDS011;3290;47.716;9.070;2022-09-17T12:04:44;1.10;;;0.90;;
6513;SDS011;3290;47.716;9.070;2022-09-17T12:12:31;4.30;;;1.33;;
6513;SDS011;3290;47.716;9.070;2022-09-17T12:15:02;1.80;;;1.13;;
6513;SDS011;3290;47.716;9.070;2022-09-17T12:17:42;2.00;;;1.17;;
6513;SDS011;3290;47.716;9.070;2022-09-17T12:20:23;1.30;;;0.90;;
6513;SDS011;3290;47.716;9.070;2022-09-17T12:22:51;2.80;;;1.40;;
6513;SDS011;3290;47.716;9.070;2022-09-17T12:25:19;5.13;;;1.40;;
6513;SDS011;3290;47.716;9.070;2022-09-17T12:30:31;1.87;;;1.07;;
6513;SDS011;3290;47.716;9.070;2022-09-17T12:35:52;8.60;;;1.70;;
6513;SDS011;3290;47.716;9.070;2022-09-17T12:52:06;4.60;;;1.20;;
6513;SDS011;3290;47.716;9.070;2022-09-17T13:00:15;8.23;;;4.30;;
6513;SDS011;3290;47.716;9.070;2022-09-17T13:02:45;5.20;;;2.87;;
6513;SDS011;3290;47.716;9.070;2022-09-17T13:05:26;3.33;;;1.20;;
6513;SDS011;3290;47.716;9.070;2022-09-17T13:08:12;3.77;;;1.40;;
6513;SDS011;3290;47.716;9.070;2022-09-17T13:15:50;1.70;;;1.30;;
6513;SDS011;3290;47.716;9.070;2022-09-17T13:21:22;2.07;;;1.77;;
6513;SDS011;3290;47.716;9.070;2022-09-17T13:23:56;2.83;;;1.80;;
6513;SDS011;3290;47.716;9.070;2022-09-17T13:26:31;3.63;;;1.97;;
6513;SDS011;3290;47.716;9.070;2022-09-17T13:28:59;3.00;;;1.43;;
6513;SDS011;3290;47.716;9.070;2022-09-17T13:33:59;1.87;;;0.90;;
6513;SDS011;3290;47.716;9.070;2022-09-17T13:39:01;8.40;;;3.83;;
6513;SDS011;3290;47.716;9.070;2022-09-17T13:41:27;2.80;;;1.50;;
6513;SDS011;3290;47.716;9.070;2022-09-17T13:43:57;2.17;;;1.07;;
6513;SDS011;3290;47.716;9.070;2022-09-17T13:46:26;4.07;;;1.30;;
6513;SDS011;3290;47.716;9.070;2022-09-17T13:48:56;20.00;;;7.20;;
6513;SDS011;3290;47.716;9.070;2022-09-17T13:53:53;3.47;;;1.83;;
6513;SDS011;3290;47.716;9.070;2022-09-17T13:56:27;2.43;;;1.40;;
6513;SDS011;3290;47.716;9.070;2022-09-17T13:59:08;3.90;;;2.20;;
6513;SDS011;3290;47.716;9.070;2022-09-17T14:09:53;2.23;;;1.40;;
6513;SDS011;3290;47.716;9.070;2022-09-17T14:23:34;1.73;;;0.80;;
6513;SDS011;3290;47.716;9.070;2022-09-17T14:26:07;3.80;;;1.07;;
6513;SDS011;3290;47.716;9.070;2022-09-17T14:28:52;2.50;;;1.00;;
6513;SDS011;3290;47.716;9.070;2022-09-17T14:31:30;7.70;;;1.53;;
6513;SDS011;3290;47.716;9.070;2022-09-17T14:34:01;1.00;;;0.90;;
6513;SDS011;3290;47.716;9.070;2022-09-17T14:36:28;5.23;;;2.20;;
6513;SDS011;3290;47.716;9.070;2022-09-17T14:39:00;3.80;;;1.87;;
6513;SDS011;3290;47.716;9.070;2022-09-17T14:41:29;1.00;;;0.87;;
6513;SDS011;3290;47.716;9.070;2022-09-17T14:44:00;3.47;;;1.50;;
6513;SDS011;3290;47.716;9.070;2022-09-17T14:46:29;6.70;;;3.00;;
6513;SDS011;3290;47.716;9.070;2022-09-17T14:51:55;2.83;;;1.10;;
6513;SDS011;3290;47.716;9.070;2022-09-17T14:54:22;2.20;;;1.60;;
6513;SDS011;3290;47.716;9.070;2022-09-17T15:05:18;4.67;;;1.43;;
6513;SDS011;3290;47.716;9.070;2022-09-17T15:07:44;5.17;;;1.27;;
6513;SDS011;3290;47.716;9.070;2022-09-17T15:10:20;5.30;;;1.67;;
6513;SDS011;3290;47.716;9.070;2022-09-17T15:12:46;1.80;;;1.37;;
6513;SDS011;3290;47.716;9.070;2022-09-17T15:15:23;1.07;;;0.80;;
6513;SDS011;3290;47.716;9.070;2022-09-17T15:17:50;2.60;;;1.13;;
6513;SDS011;3290;47.716;9.070;2022-09-17T15:20:21;5.97;;;1.60;;
6513;SDS011;3290;47.716;9.070;2022-09-17T15:22:51;2.20;;;1.10;;
6513;SDS011;3290;47.716;9.070;2022-09-17T15:25:38;12.40;;;2.40;;
6513;SDS011;3290;47.716;9.070;2022-09-17T15:28:50;5.20;;;1.80;;
6513;SDS011;3290;47.716;9.070;2022-09-17T15:30:59;4.30;;;1.90;;
6513;SDS011;3290;47.716;9.070;2022-09-17T15:33:25;15.33;;;1.47;;
6513;SDS011;3290;47.716;9.070;2022-09-17T15:36:34;1.17;;;0.90;;
6513;SDS011;3290;47.716;9.070;2022-09-17T15:38:44;3.83;;;2.00;;
6513;SDS011;3290;47.716;9.070;2022-09-17T15:43:53;4.70;;;3.50;;
6513;SDS011;3290;47.716;9.070;2022-09-17T15:46:22;4.30;;;1.40;;
6513;SDS011;3290;47.716;9.070;2022-09-17T15:48:54;2.00;;;1.27;;
6513;SDS011;3290;47.716;9.070;2022-09-17T15:51:23;1.00;;;0.80;;
6513;SDS011;3290;47.716;9.070;2022-09-17T15:53:55;3.00;;;1.23;;
6513;SDS011;3290;47.716;9.070;2022-09-17T15:56:25;2.60;;;0.90;;
6513;SDS011;3290;47.716;9.070;2022-09-17T15:58:55;1.30;;;1.20;;
6513;SDS011;3290;47.716;9.070;2022-09-17T16:10:10;1.47;;;1.00;;
6513;SDS011;3290;47.716;9.070;2022-09-17T16:12:28;1.13;;;1.03;;
6513;SDS011;3290;47.716;9.070;2022-09-17T16:14:54;1.83;;;0.90;;
6513;SDS011;3290;47.716;9.070;2022-09-17T16:19:53;1.53;;;1.17;;
6513;SDS011;3290;47.716;9.070;2022-09-17T16:22:20;1.90;;;1.17;;
6513;SDS011;3290;47.716;9.070;2022-09-17T16:24:45;7.83;;;2.50;;
6513;SDS011;3290;47.716;9.070;2022-09-17T16:27:27;1.20;;;1.10;;
6513;SDS011;3290;47.716;9.070;2022-09-17T16:30:04;1.57;;;1.03;;
6513;SDS011;3290;47.716;9.070;2022-09-17T16:32:33;2.13;;;1.33;;
6513;SDS011;3290;47.716;9.070;2022-09-17T16:34:58;3.30;;;1.80;;
6513;SDS011;3290;47.716;9.070;2022-09-17T16:37:24;3.17;;;1.40;;
6513;SDS011;3290;47.716;9.070;2022-09-17T16:39:49;3.73;;;1.20;;
6513;SDS011;3290;47.716;9.070;2022-09-17T16:42:15;3.87;;;1.70;;
6513;SDS011;3290;47.716;9.070;2022-09-17T16:44:40;1.50;;;1.00;;
6513;SDS011;3290;47.716;9.070;2022-09-17T16:47:06;2.60;;;1.13;;
6513;SDS011;3290;47.716;9.070;2022-09-17T16:49:31;7.23;;;1.40;;
6513;SDS011;3290;47.716;9.070;2022-09-17T16:51:56;4.60;;;1.20;;
6513;SDS011;3290;47.716;9.070;2022-09-17T16:54:22;1.73;;;1.10;;
6513;SDS011;3290;47.716;9.070;2022-09-17T16:56:47;6.03;;;1.30;;
6513;SDS011;3290;47.716;9.070;2022-09-17T16:59:13;1.40;;;1.00;;
6513;SDS011;3290;47.716;9.070;2022-09-17T17:01:38;2.23;;;1.03;;
6513;SDS011;3290;47.716;9.070;2022-09-17T17:04:04;1.20;;;1.10;;
6513;SDS011;3290;47.716;9.070;2022-09-17T17:06:29;2.40;;;1.10;;
6513;SDS011;3290;47.716;9.070;2022-09-17T17:08:56;1.30;;;1.20;;
6513;SDS011;3290;47.716;9.070;2022-09-17T17:11:22;3.80;;;1.17;;
6513;SDS011;3290;47.716;9.070;2022-09-17T17:13:47;3.00;;;1.40;;
6513;SDS011;3290;47.716;9.070;2022-09-17T17:16:13;2.47;;;1.13;;
6513;SDS011;3290;47.716;9.070;2022-09-17T17:18:42;4.40;;;1.10;;
6513;SDS011;3290;47.716;9.070;2022-09-17T17:21:09;1.00;;;0.90;;
6513;SDS011;3290;47.716;9.070;2022-09-17T17:23:35;3.77;;;1.20;;
6513;SDS011;3290;47.716;9.070;2022-09-17T17:26:01;1.50;;;1.10;;
6513;SDS011;3290;47.716;9.070;2022-09-17T17:28:31;4.93;;;1.30;;
6513;SDS011;3290;47.716;9.070;2022-09-17T17:30:57;3.33;;;1.17;;
6513;SDS011;3290;47.716;9.070;2022-09-17T17:33:23;1.80;;;1.10;;
6513;SDS011;3290;47.716;9.070;2022-09-17T17:35:48;3.43;;;1.20;;
6513;SDS011;3290;47.716;9.070;2022-09-17T17:38:15;1.83;;;1.27;;
6513;SDS011;3290;47.716;9.070;2022-09-17T17:40:41;7.77;;;3.60;;
6513;SDS011;3290;47.716;9.070;2022-09-17T17:43:08;5.23;;;2.67;;
6513;SDS011;3290;47.716;9.070;2022-09-17T17:45:33;7.40;;;2.40;;
6513;SDS011;3290;47.716;9.070;2022-09-17T17:47:59;4.77;;;2.00;;
6513;SDS011;3290;47.716;9.070;2022-09-17T17:50:24;54.30;;;12.07;;
6513;SDS011;3290;47.716;9.070;2022-09-17T17:52:52;5.17;;;2.13;;
6513;SDS011;3290;47.716;9.070;2022-09-17T17:55:18;14.20;;;5.00;;
6513;SDS011;3290;47.716;9.070;2022-09-17T17:57:43;29.77;;;8.83;;
6513;SDS011;3290;47.716;9.070;2022-09-17T18:00:09;10.20;;;3.50;;
6513;SDS011;3290;47.716;9.070;2022-09-17T18:02:36;6.40;;;2.37;;
6513;SDS011;3290;47.716;9.070;2022-09-17T18:05:01;13.37;;;3.80;;
6513;SDS011;3290;47.716;9.070;2022-09-17T18:07:27;15.20;;;3.83;;
6513;SDS011;3290;47.716;9.070;2022-09-17T18:09:52;14.53;;;5.70;;
6513;SDS011;3290;47.716;9.070;2022-09-17T18:12:18;22.27;;;6.90;;
6513;SDS011;3290;47.716;9.070;2022-09-17T18:14:43;27.87;;;8.17;;
6513;SDS011;3290;47.716;9.070;2022-09-17T18:17:09;17.50;;;6.33;;
6513;SDS011;3290;47.716;9.070;2022-09-17T18:19:34;10.23;;;3.80;;
6513;SDS011;3290;47.716;9.070;2022-09-17T18:21:59;15.90;;;5.17;;
6513;SDS011;3290;47.716;9.070;2022-09-17T18:24:25;12.17;;;4.10;;
6513;SDS011;3290;47.716;9.070;2022-09-17T18:26:50;8.70;;;3.40;;
6513;SDS011;3290;47.716;9.070;2022-09-17T18:29:15;2.60;;;1.50;;
6513;SDS011;3290;47.716;9.070;2022-09-17T18:31:41;4.17;;;2.37;;
6513;SDS011;3290;47.716;9.070;2022-09-17T18:34:09;10.97;;;4.00;;
6513;SDS011;3290;47.716;9.070;2022-09-17T18:36:39;14.93;;;5.43;;
6513;SDS011;3290;47.716;9.070;2022-09-17T18:39:08;16.93;;;5.50;;
6513;SDS011;3290;47.716;9.070;2022-09-17T18:41:37;11.03;;;4.07;;
6513;SDS011;3290;47.716;9.070;2022-09-17T18:44:05;20.10;;;6.70;;
6513;SDS011;3290;47.716;9.070;2022-09-17T18:46:31;17.20;;;6.20;;
6513;SDS011;3290;47.716;9.070;2022-09-17T18:48:57;6.50;;;3.20;;
6513;SDS011;3290;47.716;9.070;2022-09-17T18:51:24;6.90;;;3.30;;
6513;SDS011;3290;47.716;9.070;2022-09-17T18:53:50;7.70;;;3.87;;
6513;SDS011;3290;47.716;9.070;2022-09-17T18:56:17;6.03;;;3.03;;